Time;durP1;ratioP1;P1;durP2;ratioP2;P2;SDS_P1;SDS_P2;PMS_P1;PMS_P2;Temp;Humidity;BMP_temperature;BMP_pressure;BME280_temperature;BME280_humidity;BME280_pressure;Samples;Min_cycle;Max_cycle;Signal;HPM_P1;HPM_P2
2022/05/23 00:02:12;;;;;;;4.45;2.53;;;21.70;53.80;;;;;;5053095;28;20033;-72
2022/05/23 00:04:39;;;;;;;4.55;2.38;;;21.70;54.00;;;;;;5035587;28;20083;-72
2022/05/23 00:07:32;;;;;;;5.90;2.50;;;21.70;54.10;;;;;;5035386;28;20437;-78
2022/05/23 00:10:03;;;;;;;4.53;2.13;;;21.70;54.00;;;;;;5049363;28;20104;-73
2022/05/23 00:12:29;;;;;;;6.13;2.60;;;21.80;54.20;;;;;;5054950;28;20131;-73
2022/05/23 00:14:55;;;;;;;4.93;2.53;;;21.70;54.20;;;;;;5073318;28;20043;-78
2022/05/23 00:17:22;;;;;;;5.55;2.72;;;21.70;53.90;;;;;;5038111;28;20037;-77
2022/05/23 00:19:49;;;;;;;5.93;2.47;;;21.80;54.30;;;;;;5055205;28;20032;-72
2022/05/23 00:22:16;;;;;;;5.30;2.60;;;21.70;54.30;;;;;;5054620;28;20029;-78
2022/05/23 00:24:44;;;;;;;5.60;2.78;;;21.80;54.30;;;;;;5054146;28;20079;-77
2022/05/23 00:27:14;;;;;;;6.70;2.95;;;21.80;54.30;;;;;;5054683;28;20135;-78
2022/05/23 00:29:41;;;;;;;9.48;2.63;;;21.80;54.40;;;;;;5054944;28;20514;-78
2022/05/23 00:37:41;;;;;;;5.85;2.83;;;21.70;53.80;;;;;;5057494;28;20393;-73
2022/05/23 00:40:11;;;;;;;5.60;2.63;;;21.70;53.90;;;;;;5050432;28;20406;-73
2022/05/23 00:45:25;;;;;;;9.50;2.67;;;21.70;54.10;;;;;;5037151;28;20048;-73
2022/05/23 00:47:53;;;;;;;5.93;2.47;;;21.70;54.00;;;;;;5034720;28;20124;-73
2022/05/23 00:50:19;;;;;;;6.88;2.58;;;21.70;54.20;;;;;;5034644;28;20398;-79
2022/05/23 00:53:04;;;;;;;5.95;2.58;;;21.70;54.00;;;;;;5052481;28;20048;-73
2022/05/23 00:55:49;;;;;;;5.80;2.40;;;21.70;53.70;;;;;;5049326;28;20044;-73
2022/05/23 00:58:23;;;;;;;7.60;2.50;;;21.80;53.60;;;;;;5072710;28;20402;-73
2022/05/23 01:00:50;;;;;;;5.45;2.72;;;21.80;53.50;;;;;;5054197;28;20107;-79
2022/05/23 01:03:19;;;;;;;5.05;2.33;;;21.80;53.60;;;;;;5054546;28;20485;-73
2022/05/23 01:05:46;;;;;;;6.80;2.40;;;21.70;53.30;;;;;;5054101;28;20051;-72
2022/05/23 01:08:16;;;;;;;6.93;2.88;;;21.70;53.40;;;;;;5037606;28;20033;-74
2022/05/23 01:10:55;;;;;;;4.97;2.40;;;21.70;53.20;;;;;;5053508;28;20367;-78
2022/05/23 01:13:21;;;;;;;5.32;2.25;;;21.70;53.00;;;;;;5072306;28;20060;-72
2022/05/23 01:15:49;;;;;;;;;;;21.60;53.00;;;;;;5072470;28;20111;-78
2022/05/23 01:18:15;;;;;;;4.90;2.50;;;21.50;52.50;;;;;;5037625;28;19991;-73
2022/05/23 01:20:45;;;;;;;5.43;2.60;;;21.50;52.20;;;;;;5053897;28;20497;-73
2022/05/23 01:24:07;;;;;;;5.20;2.47;;;21.50;52.40;;;;;;5054557;28;20055;-73
2022/05/23 01:26:34;;;;;;;4.63;2.50;;;21.40;52.80;;;;;;5071575;28;20446;-72
2022/05/23 01:29:00;;;;;;;7.10;2.58;;;21.40;53.00;;;;;;5072347;28;20275;-78
2022/05/23 01:31:26;;;;;;;5.00;2.17;;;21.40;53.00;;;;;;5053991;28;20119;-77
2022/05/23 01:33:52;;;;;;;;;;;21.40;52.80;;;;;;5054767;28;20120;-77
2022/05/23 01:36:20;;;;;;;5.38;2.50;;;21.30;52.40;;;;;;5071863;28;20091;-72
2022/05/23 01:38:46;;;;;;;7.80;2.83;;;21.30;52.60;;;;;;5054132;28;20519;-72
2022/05/23 01:41:12;;;;;;;6.53;2.90;;;21.20;52.80;;;;;;5052946;28;20028;-77
2022/05/23 01:43:39;;;;;;;5.35;2.50;;;21.20;52.50;;;;;;5037519;28;20552;-72
2022/05/23 01:46:05;;;;;;;;;;;21.20;52.10;;;;;;5072151;28;20037;-77
2022/05/23 01:48:31;;;;;;;5.35;2.42;;;21.20;51.80;;;;;;5074299;28;19924;-76
2022/05/23 01:50:57;;;;;;;5.30;2.63;;;21.10;51.80;;;;;;5075464;28;20032;-76
2022/05/23 01:53:23;;;;;;;;;;;21.10;51.90;;;;;;5058337;28;20486;-76
2022/05/23 01:55:49;;;;;;;5.43;2.60;;;21.10;51.70;;;;;;5074460;28;19920;-71
2022/05/23 02:01:12;;;;;;;5.50;2.38;;;21.10;52.20;;;;;;5075678;28;20040;-72
2022/05/23 02:01:13;;;;;;;7.00;2.30;;;21.10;52.60;;;;;;5075555;28;20052;-71
2022/05/23 02:03:43;;;;;;;7.05;2.75;;;21.00;52.50;;;;;;5059376;28;20127;-72
2022/05/23 02:06:10;;;;;;;6.53;2.50;;;21.10;52.50;;;;;;5057736;28;20471;-72
2022/05/23 02:08:36;;;;;;;5.78;2.67;;;21.10;52.50;;;;;;5057315;28;20071;-71
2022/05/23 02:11:07;;;;;;;6.05;2.72;;;21.10;52.50;;;;;;5056319;28;20041;-72
2022/05/23 02:13:36;;;;;;;6.38;3.10;;;21.20;52.10;;;;;;5057474;28;20037;-71
2022/05/23 02:16:03;;;;;;;7.00;2.20;;;21.20;51.80;;;;;;5057396;28;20389;-72
2022/05/23 02:18:30;;;;;;;5.22;2.30;;;21.10;51.30;;;;;;5040648;28;20068;-76
2022/05/23 02:20:57;;;;;;;5.68;2.20;;;21.00;51.60;;;;;;5040217;28;20056;-76
2022/05/23 02:23:24;;;;;;;5.38;2.00;;;21.00;51.30;;;;;;5075161;28;20047;-76
2022/05/23 02:25:51;;;;;;;4.65;2.20;;;20.90;50.90;;;;;;5055648;28;20032;-72
2022/05/23 02:28:19;;;;;;;6.22;2.08;;;20.90;50.40;;;;;;5040545;28;20068;-75
2022/05/23 02:30:48;;;;;;;5.60;2.22;;;20.80;50.20;;;;;;5056522;28;20033;-72
2022/05/23 02:33:15;;;;;;;4.65;2.28;;;20.80;50.20;;;;;;5040342;28;20036;-71
2022/05/23 02:35:42;;;;;;;4.93;2.03;;;20.70;50.20;;;;;;5056663;28;20440;-71
2022/05/23 02:38:08;;;;;;;5.13;2.22;;;20.70;49.60;;;;;;5056893;28;20031;-76
2022/05/23 02:40:34;;;;;;;;;;;20.70;50.10;;;;;;5074203;28;20037;-76
2022/05/23 02:43:00;;;;;;;4.68;2.20;;;20.70;50.00;;;;;;5056889;28;19912;-75
2022/05/23 02:45:26;;;;;;;5.55;2.08;;;20.70;49.80;;;;;;5074483;28;20450;-76
2022/05/23 02:47:52;;;;;;;;;;;20.60;49.70;;;;;;5075543;28;20059;-76
2022/05/23 02:50:18;;;;;;;6.18;2.10;;;20.60;49.70;;;;;;5074735;28;19916;-72
2022/05/23 02:52:44;;;;;;;;;;;20.60;49.60;;;;;;5075228;28;20440;-72
2022/05/23 02:55:11;;;;;;;7.95;2.28;;;20.50;49.50;;;;;;5053415;28;20019;-76
2022/05/23 02:57:37;;;;;;;4.57;1.88;;;20.60;49.50;;;;;;5053245;28;20079;-75
2022/05/23 03:00:07;;;;;;;7.82;2.30;;;20.60;49.00;;;;;;5036338;28;20029;-76
2022/05/23 03:05:18;;;;;;;6.75;2.20;;;20.60;49.40;;;;;;5054537;28;20079;-71
2022/05/23 03:07:45;;;;;;;7.03;2.13;;;20.60;49.30;;;;;;5054388;28;20405;-76
2022/05/23 03:10:12;;;;;;;6.18;2.13;;;20.50;49.50;;;;;;5039644;28;20032;-73
2022/05/23 03:12:38;;;;;;;9.85;2.33;;;20.50;49.40;;;;;;5056242;28;20036;-75
2022/05/23 03:15:05;;;;;;;;;;;20.50;49.90;;;;;;5039743;28;20032;-76
2022/05/23 03:17:32;;;;;;;7.93;2.67;;;20.50;49.60;;;;;;5056253;28;19924;-72
2022/05/23 03:20:01;;;;;;;6.20;2.47;;;20.50;49.80;;;;;;5056451;28;20060;-76
2022/05/23 03:27:56;;;;;;;6.28;1.95;;;20.40;50.50;;;;;;5078631;28;20066;-76
2022/05/23 03:30:22;;;;;;;;;;;20.40;50.50;;;;;;5076339;28;20130;-71
2022/05/23 03:32:48;;;;;;;11.80;2.60;;;20.40;49.60;;;;;;5094130;28;20007;-76
2022/05/23 03:35:14;;;;;;;;;;;20.30;50.70;;;;;;5094053;28;20085;-76
2022/05/23 03:37:40;;;;;;;5.82;2.40;;;20.40;50.30;;;;;;5075967;28;19916;-72
2022/05/23 03:40:07;;;;;;;;;;;20.30;50.80;;;;;;5073825;28;20060;-71
2022/05/23 03:42:54;;;;;;;6.97;2.38;;;20.20;50.20;;;;;;5073695;28;20301;-72
2022/05/23 03:45:21;;;;;;;6.75;2.38;;;20.20;50.70;;;;;;5038790;28;20120;-76
2022/05/23 03:47:50;;;;;;;8.70;2.20;;;20.20;50.90;;;;;;5073523;28;20080;-71
2022/05/23 03:50:17;;;;;;;6.65;2.35;;;20.30;50.80;;;;;;5055436;28;20028;-76
2022/05/23 03:52:44;;;;;;;10.73;2.53;;;20.30;50.40;;;;;;5055598;28;20036;-71
2022/05/23 03:55:10;;;;;;;9.30;2.72;;;20.30;50.30;;;;;;5054697;28;20048;-71
2022/05/23 03:57:39;;;;;;;5.78;2.70;;;20.40;49.90;;;;;;5055418;28;20036;-75
2022/05/23 04:00:08;;;;;;;7.13;2.20;;;20.50;50.40;;;;;;5055113;28;20094;-71
2022/05/23 04:02:35;;;;;;;7.57;2.40;;;20.50;49.80;;;;;;5055605;28;20341;-71
2022/05/23 04:05:01;;;;;;;5.20;2.20;;;20.50;49.50;;;;;;5072974;28;20078;-76
2022/05/23 04:07:28;;;;;;;4.95;2.20;;;20.60;49.90;;;;;;5072757;28;20059;-72
2022/05/23 04:09:54;;;;;;;6.45;2.20;;;20.70;49.90;;;;;;5054779;28;20041;-72
2022/05/23 04:12:25;;;;;;;7.32;2.20;;;20.70;50.00;;;;;;5050810;28;20044;-76
2022/05/23 04:14:52;;;;;;;7.22;2.38;;;20.80;49.70;;;;;;5035350;28;20087;-75
2022/05/23 04:17:17;;;;;;;;;;;20.80;50.00;;;;;;5035483;28;20033;-76
2022/05/23 04:19:43;;;;;;;6.00;2.33;;;20.90;49.50;;;;;;5053111;28;19923;-72
2022/05/23 04:22:09;;;;;;;8.10;2.55;;;20.90;49.30;;;;;;5052639;28;20033;-75
2022/05/23 04:24:36;;;;;;;9.52;2.92;;;21.00;49.50;;;;;;5053023;28;20041;-75
2022/05/23 04:27:02;;;;;;;;;;;21.00;49.50;;;;;;5045068;28;20126;-75
2022/05/23 04:29:28;;;;;;;7.03;2.40;;;21.10;49.30;;;;;;5053068;28;20134;-75
2022/05/23 04:31:54;;;;;;;8.73;2.50;;;21.10;49.40;;;;;;5051085;28;20036;-75
2022/05/23 04:37:05;;;;;;;6.82;2.30;;;21.20;49.40;;;;;;5051813;28;20467;-75
2022/05/23 04:39:31;;;;;;;11.90;2.53;;;21.20;49.60;;;;;;5052947;28;20494;-71
2022/05/23 04:41:57;;;;;;;13.57;2.90;;;21.20;49.80;;;;;;5045988;28;20119;-71
2022/05/23 04:44:23;;;;;;;5.30;2.30;;;21.20;49.10;;;;;;5054700;28;20048;-76
2022/05/23 04:52:22;;;;;;;4.30;1.90;;;21.30;49.50;;;;;;5072355;28;20413;-75
2022/05/23 04:54:49;;;;;;;7.55;2.20;;;21.30;49.30;;;;;;5072805;28;20043;-75
2022/05/23 04:57:15;;;;;;;5.68;2.47;;;21.30;49.00;;;;;;5049967;28;20461;-71
2022/05/23 04:59:44;;;;;;;;;;;21.30;48.90;;;;;;5035200;28;20448;-76
2022/05/23 05:02:10;;;;;;;7.80;2.28;;;21.30;48.40;;;;;;5034275;28;19917;-71
2022/05/23 05:04:36;;;;;;;;;;;21.20;49.00;;;;;;5035030;28;20119;-76
2022/05/23 05:07:03;;;;;;;8.65;3.20;;;21.30;48.90;;;;;;5052114;28;19987;-75
2022/05/23 05:09:29;;;;;;;9.38;5.13;;;21.30;48.30;;;;;;5052022;28;20041;-75
2022/05/23 05:11:55;;;;;;;;;;;21.40;49.40;;;;;;5061805;28;20333;-71
2022/05/23 05:14:21;;;;;;;10.13;3.03;;;21.40;48.90;;;;;;5072548;28;19916;-71
2022/05/23 05:16:47;;;;;;;5.82;2.50;;;21.40;49.50;;;;;;5054060;28;20482;-72
2022/05/23 05:19:13;;;;;;;;;;;21.40;49.30;;;;;;5071577;28;20033;-75
2022/05/23 05:21:39;;;;;;;5.07;2.28;;;21.40;49.00;;;;;;5053955;28;19942;-73
2022/05/23 05:24:05;;;;;;;;;;;21.40;49.20;;;;;;5058569;28;20090;-72
2022/05/23 05:26:32;;;;;;;6.23;2.70;;;21.40;48.30;;;;;;5057030;28;19920;-76
2022/05/23 05:28:58;;;;;;;6.78;2.38;;;21.40;48.30;;;;;;5058186;28;20068;-76
2022/05/23 05:31:45;;;;;;;;;;;21.50;48.10;;;;;;5076452;28;20056;-75
2022/05/23 05:34:51;;;;;;;7.88;2.83;;;21.60;48.00;;;;;;5041455;28;19920;-75
2022/05/23 05:37:45;;;;;;;8.82;2.92;;;21.60;48.10;;;;;;5057843;28;20046;-72
2022/05/23 05:40:15;;;;;;;12.30;2.88;;;21.60;48.30;;;;;;5058379;28;20502;-75
2022/05/23 05:42:49;;;;;;;6.05;2.75;;;21.60;48.60;;;;;;5057342;28;20033;-72
2022/05/23 05:45:37;;;;;;;13.15;3.78;;;21.70;48.50;;;;;;5041267;28;20032;-72
2022/05/23 05:48:05;;;;;;;10.55;2.70;;;21.70;48.80;;;;;;5057812;28;20060;-71
2022/05/23 05:50:37;;;;;;;7.20;3.05;;;21.70;48.80;;;;;;5057486;28;20029;-72
2022/05/23 05:53:09;;;;;;;7.55;2.80;;;21.70;48.90;;;;;;5057892;28;20056;-71
2022/05/23 05:55:38;;;;;;;9.55;3.95;;;21.80;48.70;;;;;;5057432;28;20029;-72
2022/05/23 05:58:04;;;;;;;11.15;2.97;;;21.90;48.50;;;;;;5053555;28;20116;-76
2022/05/23 06:00:30;;;;;;;4.32;2.20;;;22.00;48.30;;;;;;5037508;28;20041;-72
2022/05/23 06:02:56;;;;;;;6.05;2.25;;;22.00;48.50;;;;;;5037741;28;20063;-71
2022/05/23 06:05:23;;;;;;;;;;;22.10;48.30;;;;;;5055717;28;20037;-72
2022/05/23 06:13:25;;;;;;;5.43;2.10;;;22.10;48.00;;;;;;5072958;28;20106;-71
2022/05/23 06:15:51;;;;;;;;;;;22.20;47.50;;;;;;5075504;28;20060;-72
2022/05/23 06:18:17;;;;;;;5.85;2.17;;;22.30;47.60;;;;;;5057489;28;19931;-75
2022/05/23 06:20:43;;;;;;;;;;;22.10;47.20;;;;;;5075416;28;20043;-72
2022/05/23 06:23:09;;;;;;;4.47;2.17;;;22.10;47.50;;;;;;5075193;28;20289;-72
2022/05/23 06:25:35;;;;;;;7.22;1.95;;;22.00;47.40;;;;;;5056884;28;20036;-72
2022/05/23 06:28:01;;;;;;;;;;;22.00;47.60;;;;;;5074743;28;20056;-72
2022/05/23 06:30:27;;;;;;;8.50;2.67;;;22.00;47.40;;;;;;5057231;28;19969;-72
2022/05/23 06:32:53;;;;;;;;;;;22.10;47.60;;;;;;5057382;28;20406;-75
2022/05/23 06:35:21;;;;;;;9.15;2.30;;;22.10;47.50;;;;;;5056787;28;19912;-71
2022/05/23 06:37:47;;;;;;;7.22;2.22;;;22.10;47.10;;;;;;5057375;28;20040;-76
2022/05/23 06:40:15;;;;;;;4.25;2.00;;;22.30;46.70;;;;;;5056766;28;20466;-71
2022/05/23 06:42:42;;;;;;;8.73;2.53;;;22.50;47.10;;;;;;5062965;28;20099;-75
2022/05/23 06:45:09;;;;;;;5.95;2.35;;;22.70;47.00;;;;;;5056644;28;20047;-75
2022/05/23 06:47:35;;;;;;;3.95;1.73;;;22.90;46.20;;;;;;5074645;28;20028;-76
2022/05/23 06:50:02;;;;;;;4.55;2.10;;;23.20;45.70;;;;;;5075152;28;20440;-76
2022/05/23 06:52:28;;;;;;;9.52;2.95;;;23.30;45.50;;;;;;5056453;28;20032;-76
2022/05/23 06:54:54;;;;;;;;;;;23.50;44.90;;;;;;5057433;28;20081;-76
2022/05/23 06:57:20;;;;;;;5.63;2.25;;;23.60;45.00;;;;;;5055492;28;20383;-75
2022/05/23 06:59:46;;;;;;;;;;;23.70;44.10;;;;;;5057201;28;20028;-75
2022/05/23 07:02:12;;;;;;;8.25;2.15;;;23.70;44.70;;;;;;5074262;28;19967;-74
2022/05/23 07:12:56;;;;;;;6.03;2.08;;;24.00;43.50;;;;;;5052349;28;20091;-70
2022/05/23 07:15:22;;;;;;;11.82;2.53;;;24.10;43.50;;;;;;5036284;28;20045;-71
2022/05/23 07:17:48;;;;;;;5.53;1.92;;;24.20;43.70;;;;;;5036396;28;20079;-75
2022/05/23 07:20:15;;;;;;;6.32;2.30;;;24.30;43.40;;;;;;5036051;28;20037;-71
2022/05/23 07:22:42;;;;;;;9.63;2.20;;;24.50;42.70;;;;;;5036338;28;20506;-72
2022/05/23 07:25:09;;;;;;;5.07;2.20;;;24.60;43.20;;;;;;5052679;28;20041;-75
2022/05/23 07:27:35;;;;;;;4.68;2.05;;;24.70;42.40;;;;;;5041229;28;20136;-71
2022/05/23 07:30:02;;;;;;;7.15;2.72;;;24.80;42.00;;;;;;5056243;28;20066;-71
2022/05/23 07:32:29;;;;;;;4.75;2.13;;;25.00;41.70;;;;;;5073570;28;20128;-75
2022/05/23 07:34:56;;;;;;;7.82;2.10;;;25.20;41.10;;;;;;5074280;28;20032;-71
2022/05/23 07:37:22;;;;;;;4.72;1.92;;;25.20;40.50;;;;;;5055615;28;20493;-75
2022/05/23 07:39:48;;;;;;;;;;;25.30;40.30;;;;;;5056567;28;20044;-72
2022/05/23 07:42:14;;;;;;;5.65;1.92;;;25.40;40.90;;;;;;5072732;28;19962;-74
2022/05/23 07:44:40;;;;;;;;;;;25.40;40.40;;;;;;5055911;28;20036;-74
2022/05/23 07:47:06;;;;;;;6.63;2.15;;;25.50;40.90;;;;;;5073047;28;20356;-71
2022/05/23 07:49:51;;;;;;;12.23;2.50;;;25.50;39.50;;;;;;5055693;28;20033;-75
2022/05/23 07:52:17;;;;;;;6.53;1.95;;;25.70;40.00;;;;;;5055256;28;20524;-71
2022/05/23 08:00:34;;;;;;;5.95;2.17;;;26.50;38.40;;;;;;5057574;28;20043;-73
2022/05/23 08:03:20;;;;;;;4.85;2.05;;;26.80;37.60;;;;;;5073316;28;20052;-74
2022/05/23 08:05:46;;;;;;;7.53;2.80;;;27.00;37.90;;;;;;5038379;28;20037;-74
2022/05/23 08:08:12;;;;;;;5.57;2.28;;;27.20;37.60;;;;;;5073160;28;20040;-70
2022/05/23 08:10:39;;;;;;;9.50;2.40;;;27.20;36.80;;;;;;5054864;28;20489;-74
2022/05/23 08:13:11;;;;;;;9.13;2.30;;;27.30;37.10;;;;;;5054259;28;20041;-74
2022/05/23 08:15:39;;;;;;;6.80;2.08;;;27.30;36.80;;;;;;5072050;28;20055;-71
2022/05/23 08:18:08;;;;;;;7.60;2.38;;;27.30;36.80;;;;;;5055219;28;20107;-71
2022/05/23 08:20:37;;;;;;;4.68;1.88;;;27.40;36.20;;;;;;5072483;28;20041;-74
2022/05/23 08:23:03;;;;;;;5.55;1.90;;;27.50;36.30;;;;;;5072818;28;20039;-73
2022/05/23 08:25:30;;;;;;;4.90;2.20;;;27.60;35.90;;;;;;5054649;28;20044;-72
2022/05/23 08:27:56;;;;;;;4.65;2.20;;;27.60;36.10;;;;;;5053782;28;20094;-74
2022/05/23 08:30:25;;;;;;;4.18;2.00;;;27.70;35.70;;;;;;5072523;28;20494;-71
2022/05/23 08:32:51;;;;;;;6.47;2.15;;;27.80;35.70;;;;;;5073062;28;20044;-72
2022/05/23 08:35:18;;;;;;;4.80;1.98;;;27.80;36.10;;;;;;5054549;28;20041;-74
2022/05/23 08:37:44;;;;;;;4.05;1.98;;;28.00;37.00;;;;;;5073100;28;20431;-71
2022/05/23 08:40:11;;;;;;;10.40;2.13;;;28.20;35.80;;;;;;5054415;28;20032;-71
2022/05/23 08:42:58;;;;;;;4.80;2.13;;;28.20;35.30;;;;;;5053999;28;20029;-74
2022/05/23 08:45:44;;;;;;;4.35;2.05;;;28.40;35.50;;;;;;5054302;28;20124;-71
2022/05/23 08:48:48;;;;;;;;;;;28.70;35.40;;;;;;5055284;28;20036;-74
2022/05/23 08:51:22;;;;;;;10.98;2.28;;;29.40;35.10;;;;;;5054281;28;19917;-71
2022/05/23 08:54:14;;;;;;;4.72;1.90;;;30.00;32.90;;;;;;5054494;28;20036;-71
2022/05/23 08:57:01;;;;;;;5.85;2.30;;;29.80;31.10;;;;;;5053973;28;20401;-71
2022/05/23 08:59:38;;;;;;;3.75;1.77;;;29.70;31.60;;;;;;5050507;28;20061;-71
2022/05/23 09:02:11;;;;;;;27.20;2.92;;;29.80;30.80;;;;;;5034243;28;20036;-72
2022/05/23 09:05:02;;;;;;;8.73;2.10;;;30.00;31.70;;;;;;5034704;28;20033;-74
2022/05/23 09:07:52;;;;;;;4.60;1.85;;;30.00;32.00;;;;;;5052071;28;20079;-72
2022/05/23 09:10:40;;;;;;;8.60;2.00;;;30.10;32.00;;;;;;5034032;28;20029;-72
2022/05/23 09:13:08;;;;;;;4.97;2.10;;;30.80;31.00;;;;;;5054580;28;20428;-71
2022/05/23 09:15:35;;;;;;;8.30;2.35;;;31.40;30.10;;;;;;5071959;28;20448;-74
2022/05/23 09:18:06;;;;;;;7.22;2.25;;;31.90;29.20;;;;;;5072189;28;20037;-72
2022/05/23 09:20:54;;;;;;;5.68;1.95;;;32.10;28.60;;;;;;5037383;28;20036;-74
2022/05/23 09:24:02;;;;;;;7.45;2.08;;;32.30;29.00;;;;;;5072256;28;20029;-75
2022/05/23 09:26:29;;;;;;;;;;;32.40;29.00;;;;;;5072312;28;20064;-71
2022/05/23 09:28:56;;;;;;;5.53;2.08;;;32.70;29.40;;;;;;5054494;28;20297;-72
2022/05/23 09:32:02;;;;;;;5.75;2.10;;;32.90;27.80;;;;;;5033974;28;20379;-72
2022/05/23 09:35:24;;;;;;;5.43;2.08;;;33.60;27.60;;;;;;5050897;28;20037;-72
2022/05/23 09:38:29;;;;;;;9.07;2.47;;;33.80;27.70;;;;;;5052254;28;20033;-72
2022/05/23 09:40:56;;;;;;;9.07;2.60;;;34.00;27.80;;;;;;5051767;28;20510;-71
2022/05/23 09:49:43;;;;;;;;;;;34.50;25.90;;;;;;5057156;28;20488;-74
2022/05/23 09:52:39;;;;;;;16.42;2.70;;;35.60;26.60;;;;;;5071714;28;19923;-74
2022/05/23 09:55:31;;;;;;;6.80;2.10;;;36.80;24.10;;;;;;5056889;28;20048;-71
2022/05/23 09:58:08;;;;;;;5.13;1.90;;;37.40;23.00;;;;;;5071836;28;20127;-75
2022/05/23 10:00:38;;;;;;;5.55;2.30;;;37.60;22.70;;;;;;5071246;28;20295;-74
2022/05/23 10:03:28;;;;;;;3.85;1.65;;;37.70;23.10;;;;;;5053990;28;20028;-74
2022/05/23 10:06:14;;;;;;;5.55;2.30;;;38.00;21.90;;;;;;5053706;28;20124;-74
2022/05/23 10:08:43;;;;;;;;;;;38.60;21.20;;;;;;5055388;28;20111;-71
2022/05/23 10:11:30;;;;;;;6.43;2.22;;;38.90;22.30;;;;;;5057598;28;19916;-75
2022/05/23 10:14:17;;;;;;;9.65;2.05;;;38.70;20.40;;;;;;5056546;28;20033;-72
2022/05/23 10:16:46;;;;;;;4.15;2.00;;;38.40;20.80;;;;;;5074907;28;20037;-72
2022/05/23 10:19:42;;;;;;;9.13;1.90;;;38.10;20.20;;;;;;5057346;28;20044;-71
2022/05/23 10:22:25;;;;;;;7.55;2.15;;;37.80;20.70;;;;;;5057092;28;20086;-72
2022/05/23 10:25:06;;;;;;;6.38;2.10;;;37.50;21.00;;;;;;5057547;28;20398;-73
2022/05/23 10:27:48;;;;;;;5.50;1.83;;;37.40;21.50;;;;;;5057274;28;20063;-71
2022/05/23 10:30:18;;;;;;;6.50;2.35;;;37.30;20.90;;;;;;5056217;28;20533;-71
2022/05/23 10:32:53;;;;;;;11.55;2.60;;;37.50;20.70;;;;;;5057352;28;20029;-73
2022/05/23 10:35:27;;;;;;;5.47;2.10;;;37.40;21.20;;;;;;5056942;28;20111;-73
2022/05/23 10:42:06;;;;;;;8.70;2.50;;;37.30;21.00;;;;;;5040418;28;20036;-72
2022/05/23 10:43:25;;;;;;;5.18;2.15;;;37.10;20.60;;;;;;5059684;28;20039;-72
2022/05/23 10:46:14;;;;;;;6.15;1.83;;;37.10;20.40;;;;;;5073715;28;20598;-72
2022/05/23 10:49:21;;;;;;;6.57;2.35;;;36.80;20.90;;;;;;5056664;28;20028;-71
2022/05/23 10:52:23;;;;;;;7.10;2.05;;;37.00;21.60;;;;;;5056571;28;20067;-73
2022/05/23 10:55:14;;;;;;;9.15;2.03;;;37.90;20.90;;;;;;5075119;28;20131;-72
2022/05/23 10:58:13;;;;;;;6.68;2.15;;;38.80;20.70;;;;;;5056878;28;20548;-74
2022/05/23 11:01:08;;;;;;;6.18;2.05;;;40.10;20.00;;;;;;5055524;28;20074;-74
2022/05/23 11:04:30;;;;;;;4.72;2.40;;;40.90;18.70;;;;;;5074512;28;20082;-72
2022/05/23 11:07:53;;;;;;;7.00;2.13;;;41.60;17.80;;;;;;5074148;28;20059;-73
2022/05/23 11:10:41;;;;;;;4.57;2.42;;;42.20;18.20;;;;;;5073865;28;20035;-72
2022/05/23 11:13:28;;;;;;;4.97;2.65;;;43.00;17.50;;;;;;5074309;28;20144;-74
2022/05/23 11:16:21;;;;;;;4.93;2.42;;;43.80;16.40;;;;;;5073050;28;20047;-72
2022/05/23 11:19:21;;;;;;;7.53;2.45;;;44.50;16.20;;;;;;5056285;28;20028;-74
2022/05/23 11:22:42;;;;;;;6.72;2.35;;;44.80;15.80;;;;;;5072971;28;20032;-72
2022/05/23 11:25:47;;;;;;;6.47;2.42;;;45.40;16.20;;;;;;5074129;28;20465;-73
2022/05/23 11:34:29;;;;;;;4.85;2.50;;;45.40;15.30;;;;;;5059086;28;20097;-74
2022/05/23 11:39:53;;;;;;;4.90;2.50;;;46.00;15.20;;;;;;5056934;28;20032;-72
2022/05/23 11:42:31;;;;;;;5.55;2.72;;;45.20;15.50;;;;;;5073523;28;20336;-73
2022/05/23 11:48:00;;;;;;;6.82;2.22;;;43.40;16.80;;;;;;5058392;28;20463;-73
2022/05/23 11:50:50;;;;;;;6.10;2.38;;;42.50;16.80;;;;;;5055421;28;20127;-72
2022/05/23 11:53:38;;;;;;;4.10;2.28;;;42.00;17.90;;;;;;5055776;28;20050;-73
2022/05/23 11:56:09;;;;;;;6.35;2.40;;;41.90;17.30;;;;;;5055633;28;20028;-73
2022/05/23 11:58:53;;;;;;;7.43;3.00;;;41.70;17.40;;;;;;5055634;28;20032;-72
2022/05/23 12:01:39;;;;;;;5.10;2.63;;;40.80;18.00;;;;;;5051107;28;20041;-75
2022/05/23 12:04:07;;;;;;;5.00;2.88;;;39.90;18.70;;;;;;5053536;28;20521;-72
2022/05/23 12:06:33;;;;;;;4.10;2.35;;;39.30;19.70;;;;;;5052862;28;20029;-73
2022/05/23 12:09:17;;;;;;;5.65;2.35;;;38.50;19.70;;;;;;5053172;28;20040;-74
2022/05/23 12:12:39;;;;;;;4.95;2.65;;;38.10;20.20;;;;;;5034884;28;20116;-74
2022/05/23 12:15:06;;;;;;;5.90;2.47;;;37.60;20.20;;;;;;5059414;28;20068;-74
2022/05/23 12:17:33;;;;;;;5.53;2.38;;;37.80;20.90;;;;;;5073093;28;20036;-73
2022/05/23 12:23:47;;;;;;;8.88;3.30;;;39.80;19.40;;;;;;5058318;28;20025;-74
2022/05/23 12:26:13;;;;;;;6.00;2.70;;;41.70;18.70;;;;;;5054527;28;20041;-73
2022/05/23 12:29:16;;;;;;;6.57;2.70;;;42.70;18.10;;;;;;5072931;28;20508;-74
2022/05/23 12:32:16;;;;;;;4.65;2.33;;;43.60;17.30;;;;;;5071207;28;20528;-72
2022/05/23 12:34:47;;;;;;;4.72;2.45;;;44.50;17.40;;;;;;5073084;28;20043;-73
2022/05/23 12:37:57;;;;;;;5.00;2.45;;;45.10;16.50;;;;;;5054664;28;20037;-73
2022/05/23 12:40:42;;;;;;;7.40;3.05;;;45.50;16.40;;;;;;5072431;28;20068;-72
2022/05/23 12:44:05;;;;;;;6.50;2.70;;;46.00;15.80;;;;;;5054932;28;20032;-73
2022/05/23 12:47:27;;;;;;;6.72;2.72;;;45.60;15.90;;;;;;5071524;28;20040;-74
2022/05/23 12:50:16;;;;;;;5.15;3.10;;;46.20;15.90;;;;;;5073038;28;20109;-73
2022/05/23 12:53:40;;;;;;;5.55;3.15;;;47.00;15.40;;;;;;5038099;28;20032;-74
2022/05/23 12:57:02;;;;;;;5.28;2.80;;;47.00;15.10;;;;;;5054454;28;20041;-74
2022/05/23 12:59:47;;;;;;;6.38;3.05;;;45.60;15.50;;;;;;5072747;28;20550;-71
2022/05/23 13:02:35;;;;;;;5.80;3.00;;;44.00;16.50;;;;;;5054222;28;20033;-72
2022/05/23 13:05:17;;;;;;;5.95;3.20;;;42.90;16.90;;;;;;5072414;28;20045;-73
2022/05/23 13:08:18;;;;;;;6.50;3.53;;;41.90;17.80;;;;;;5072403;28;20029;-73
2022/05/23 13:10:49;;;;;;;8.35;3.67;;;40.90;18.20;;;;;;5071911;28;20052;-73
2022/05/23 13:13:36;;;;;;;8.35;3.25;;;40.00;19.70;;;;;;5054623;28;20386;-71
2022/05/23 13:16:42;;;;;;;5.78;3.22;;;39.30;20.40;;;;;;5071468;28;20041;-73
2022/05/23 13:22:05;;;;;;;7.30;3.45;;;37.80;21.80;;;;;;5071914;28;20035;-72
2022/05/23 13:24:49;;;;;;;8.07;3.20;;;37.20;22.20;;;;;;5055333;28;20033;-74
2022/05/23 13:27:43;;;;;;;7.30;3.05;;;36.60;22.70;;;;;;5056295;28;20375;-74
2022/05/23 13:30:20;;;;;;;6.85;2.95;;;35.90;23.50;;;;;;5053058;28;20111;-72
2022/05/23 13:33:18;;;;;;;6.65;3.10;;;35.10;25.20;;;;;;5037683;28;20132;-72
2022/05/23 13:35:59;;;;;;;7.47;3.15;;;34.30;25.30;;;;;;5071777;28;20111;-74
2022/05/23 13:38:29;;;;;;;5.13;2.90;;;33.80;26.30;;;;;;5054126;28;20024;-72
2022/05/23 13:41:34;;;;;;;6.85;3.80;;;33.60;27.00;;;;;;5053904;28;20302;-73
2022/05/23 13:44:02;;;;;;;9.02;3.75;;;33.40;26.90;;;;;;5073878;28;20029;-74
2022/05/23 13:46:47;;;;;;;11.82;5.38;;;33.10;28.20;;;;;;5074747;28;20115;-75
2022/05/23 13:49:37;;;;;;;6.25;3.45;;;32.90;27.70;;;;;;5058070;28;20098;-72
2022/05/23 13:52:44;;;;;;;18.05;4.07;;;32.70;28.00;;;;;;5057811;28;20128;-75
2022/05/23 13:55:14;;;;;;;;;;;32.50;28.10;;;;;;5058365;28;20466;-72
2022/05/23 13:58:04;;;;;;;5.53;3.60;;;32.50;27.60;;;;;;5058152;28;20177;-72
2022/05/23 14:01:07;;;;;;;10.05;3.55;;;32.40;28.70;;;;;;5056516;28;20056;-72
2022/05/23 14:04:13;;;;;;;15.43;3.50;;;32.30;28.30;;;;;;5057835;28;20124;-74
2022/05/23 14:07:03;;;;;;;6.27;3.40;;;32.30;28.10;;;;;;5056874;28;20063;-72
2022/05/23 14:09:31;;;;;;;8.02;3.40;;;32.30;28.20;;;;;;5032963;28;20593;-71
2022/05/23 14:12:05;;;;;;;8.82;3.42;;;32.20;29.20;;;;;;4999936;28;20690;-72
2022/05/23 14:14:43;;;;;;;5.40;3.63;;;32.20;28.80;;;;;;5008555;28;20089;-72
2022/05/23 14:17:48;;;;;;;6.68;3.42;;;31.80;28.40;;;;;;5012072;28;20080;-72
2022/05/23 14:20:31;;;;;;;26.65;14.93;;;31.70;29.10;;;;;;4996565;28;20100;-74
2022/05/23 14:23:15;;;;;;;7.93;4.47;;;31.50;30.10;;;;;;5013302;28;20049;-72
2022/05/23 14:25:48;;;;;;;8.93;3.88;;;31.70;29.60;;;;;;5012780;28;20046;-72
2022/05/23 14:28:24;;;;;;;8.00;3.88;;;31.70;29.50;;;;;;5013060;28;20060;-75
2022/05/23 14:30:53;;;;;;;6.82;4.00;;;31.90;28.90;;;;;;5015413;28;20061;-72
2022/05/23 14:33:29;;;;;;;8.77;4.35;;;32.20;29.00;;;;;;5032576;28;20038;-75
2022/05/23 14:36:16;;;;;;;6.93;3.50;;;32.70;28.60;;;;;;5015997;28;20057;-75
2022/05/23 14:39:05;;;;;;;8.27;3.90;;;33.00;28.50;;;;;;5032572;28;20057;-74
2022/05/23 14:41:53;;;;;;;9.50;3.95;;;33.10;28.60;;;;;;5036769;28;20087;-75
2022/05/23 14:44:19;;;;;;;9.68;3.50;;;33.10;28.80;;;;;;5053833;28;20029;-75
2022/05/23 14:47:09;;;;;;;7.50;3.72;;;33.00;29.00;;;;;;5063786;28;20051;-73
2022/05/23 14:49:38;;;;;;;5.53;3.40;;;33.00;29.00;;;;;;5057143;28;20036;-73
2022/05/23 14:52:24;;;;;;;8.60;3.70;;;33.00;29.10;;;;;;5056521;28;20032;-75